02:14
Airports
History
Links
Donate
Help keep this website running!
PayPal
Bitcoin
Information on this page is community maintained and may be outdated or inaccurate and is intended for reference only or PC simulator navigating!
Always use approved charts for navigating.
CZFM
FORT MCPHERSON
FORT MCPHERSON (CZFM)
Fort McPherson, Northwest Territories, Canada
4
Lat/Lng:67° 24' 28.01" N / 134° 51' 36.99" W
67.40778 / -134.860275
Elevation:116'ft 35mMSL
ID / ICAO:CZFM
Runways:1
Longest:(11-29) 1,046.1m 3,432ft Gravel
Distance To
Airport ID:
Airport Radio Frequencies
MANDATORY FREQ: 122.1
Nearby VORs <50NM
Nearby NDBs
METARUpdated 04-25-17 23:00 GMT
Altimeter: 29.94
Visibility: 35.0 statute miles
Wind: 5 knots (320°)
Temp: -8°c 18°f
Humidity: 48.2%

METAR: CZFM 252300Z 32005KT 260V350 35SM BKN240 M08/M17 A2994 RMK CS7 -7.7/-18.2/0/SNW CVR/MUCH LOOSE LAST OBS/NXT 261300Z SLP143

(Powered by phpweather)
Runway 11 / 29
Dimensions:1046.1 x 30.5m 3432' x 100'ft
Surface:Gravel
Edge Lights:Low intensity
Runway 11 [A]Runway 29 [B]
Heading:140°TH 320°TH
Lat:
Lng:
67° 24' 41.01"N
134° 52' 5.02"W
67° 24' 15"N
134° 51' 8.96"W
Google Map
Nearby Airports
(C) Midway 16.5 NM
CBA4 SW 225°
4 Aklavik 56.5 NM
CYKD N 356°
(U) INUVIK MIKE ZUBKO 71.5 NM
CYEV (WX) NNE 30°
4 Eagle Plains 78.6 NM
AJ2 SW 216°
4 Old Crow 132.2 NM
CYOC (WX) W 274°
4 TUKTOYAKTUK 147.5 NM
CYUB (WX) NNE 18°
4 Oglivie River 149.5 NM
CFS4 SW 216°
VFR Chart
Flight Planning at SkyVector.com